Time;durP1;ratioP1;P1;durP2;ratioP2;P2;SDS_P1;SDS_P2;PMS_P1;PMS_P2;Temp;Humidity;BMP_temperature;BMP_pressure;BME280_temperature;BME280_humidity;BME280_pressure;Samples;Min_cycle;Max_cycle;Signal;HPM_P1;HPM_P2
2022/01/03 00:01:47;;;;;;;11.43;3.90;;;9.40;97.80;;;;;;4696799;30;20112;-75
2022/01/03 00:04:15;;;;;;;10.13;4.35;;;9.40;97.80;;;;;;4697004;30;20123;-75
2022/01/03 00:06:41;;;;;;;11.60;4.13;;;9.30;97.90;;;;;;4696799;30;20222;-75
2022/01/03 00:09:08;;;;;;;9.05;4.03;;;9.20;98.00;;;;;;4681183;30;20489;-74
2022/01/03 00:11:35;;;;;;;18.15;5.60;;;9.30;98.20;;;;;;4696650;30;20131;-74
2022/01/03 00:14:02;;;;;;;12.63;6.22;;;9.30;98.10;;;;;;4680808;30;20417;-74
2022/01/03 00:16:29;;;;;;;14.77;5.30;;;9.20;98.10;;;;;;4680983;30;20266;-75
2022/01/03 00:18:55;;;;;;;12.73;4.93;;;9.20;98.20;;;;;;4696735;30;20048;-75
2022/01/03 00:21:27;;;;;;;16.95;5.55;;;9.20;98.20;;;;;;4696546;30;20121;-74
2022/01/03 00:24:08;;;;;;;9.80;6.35;;;9.20;98.30;;;;;;4696471;30;20037;-75
2022/01/03 00:26:35;;;;;;;11.55;4.72;;;9.20;98.30;;;;;;4696440;30;20026;-74
2022/01/03 00:29:10;;;;;;;12.40;4.70;;;9.20;98.40;;;;;;4680822;30;20041;-75
2022/01/03 00:31:41;;;;;;;10.80;5.60;;;9.30;98.40;;;;;;4696284;30;20541;-75
2022/01/03 00:34:09;;;;;;;15.25;4.85;;;9.20;98.30;;;;;;4680278;30;20049;-76
2022/01/03 00:36:36;;;;;;;17.17;4.95;;;9.20;98.40;;;;;;4696190;30;20026;-75
2022/01/03 00:39:05;;;;;;;17.25;6.03;;;9.20;98.40;;;;;;4694718;30;20040;-74
2022/01/03 00:41:31;;;;;;;11.80;4.55;;;9.10;98.40;;;;;;4680612;30;20053;-74
2022/01/03 00:43:57;;;;;;;15.50;4.13;;;9.10;98.50;;;;;;4695966;30;20033;-75
2022/01/03 00:46:25;;;;;;;11.35;3.22;;;9.20;98.60;;;;;;4695887;30;20050;-75
2022/01/03 00:48:53;;;;;;;12.30;3.70;;;9.20;98.50;;;;;;4695637;30;20255;-75
2022/01/03 00:51:19;;;;;;;11.25;3.88;;;9.20;98.40;;;;;;4695648;30;20049;-76
2022/01/03 00:53:49;;;;;;;10.88;3.42;;;9.30;98.60;;;;;;4695404;30;20041;-76
2022/01/03 00:56:27;;;;;;;6.38;3.10;;;9.30;98.20;;;;;;4695628;30;20042;-74
2022/01/03 00:59:06;;;;;;;9.20;3.30;;;9.30;98.10;;;;;;4695530;30;20116;-75
2022/01/03 01:01:48;;;;;;;7.32;2.67;;;9.20;98.00;;;;;;4695551;30;20033;-76
2022/01/03 01:04:16;;;;;;;11.68;3.65;;;9.20;98.00;;;;;;4695429;30;20041;-75
2022/01/03 01:06:42;;;;;;;13.27;3.03;;;9.20;98.00;;;;;;4695534;30;20121;-74
2022/01/03 01:09:12;;;;;;;7.55;2.80;;;9.10;97.90;;;;;;4695390;30;20084;-74
2022/01/03 01:11:43;;;;;;;8.95;3.38;;;9.10;97.90;;;;;;4695372;30;20707;-75
2022/01/03 01:14:09;;;;;;;7.28;2.35;;;9.10;97.90;;;;;;4695278;30;20048;-74
2022/01/03 01:16:35;;;;;;;12.23;3.28;;;9.10;97.90;;;;;;4695636;30;20033;-74
2022/01/03 01:19:03;;;;;;;13.75;3.97;;;9.10;97.90;;;;;;4695439;30;20041;-75
2022/01/03 01:21:28;;;;;;;6.50;2.63;;;9.10;97.80;;;;;;4695365;30;20041;-75
2022/01/03 01:23:56;;;;;;;13.63;4.03;;;9.00;97.80;;;;;;4695096;30;20038;-74
2022/01/03 01:29:07;;;;;;;12.18;3.90;;;9.00;97.80;;;;;;4695580;30;20118;-75
2022/01/03 01:31:36;;;;;;;13.95;3.72;;;9.00;97.80;;;;;;4695554;30;20041;-75
2022/01/03 01:34:05;;;;;;;9.45;3.00;;;8.90;97.80;;;;;;4695120;30;20037;-75
2022/01/03 01:36:32;;;;;;;6.25;2.90;;;8.90;97.80;;;;;;4695253;30;20036;-75
2022/01/03 01:39:05;;;;;;;11.95;4.22;;;8.90;97.80;;;;;;4695374;30;20053;-74
2022/01/03 01:41:33;;;;;;;10.05;3.15;;;8.80;97.80;;;;;;4695225;30;20029;-75
2022/01/03 01:44:00;;;;;;;4.20;2.45;;;8.80;97.80;;;;;;4695400;30;20080;-75
2022/01/03 01:46:27;;;;;;;12.13;3.08;;;8.80;97.90;;;;;;4695160;30;20042;-75
2022/01/03 01:48:53;;;;;;;11.15;3.40;;;8.80;97.90;;;;;;4694858;30;20040;-75
2022/01/03 01:51:22;;;;;;;;;;;8.80;97.90;;;;;;4695082;30;20506;-76
2022/01/03 01:53:54;;;;;;;6.70;2.75;;;8.80;97.90;;;;;;4694986;30;19935;-75
2022/01/03 01:56:27;;;;;;;10.27;3.97;;;8.80;97.90;;;;;;4695014;30;20030;-75
2022/01/03 01:59:25;;;;;;;13.48;3.22;;;8.80;97.80;;;;;;4679416;30;20462;-75
2022/01/03 02:02:05;;;;;;;13.02;3.83;;;8.90;97.80;;;;;;4695003;30;20095;-74
2022/01/03 02:04:59;;;;;;;18.77;4.38;;;8.90;97.70;;;;;;4694761;30;20073;-74
2022/01/03 02:08:07;;;;;;;13.98;2.72;;;8.80;97.70;;;;;;4661529;30;20476;-74
2022/01/03 02:11:04;;;;;;;8.88;3.22;;;8.80;97.70;;;;;;4694950;30;20053;-74
2022/01/03 02:13:31;;;;;;;5.93;2.88;;;8.80;97.70;;;;;;4684147;30;20049;-74
2022/01/03 02:16:03;;;;;;;14.90;2.88;;;8.80;97.70;;;;;;4693671;30;20037;-75
2022/01/03 02:18:29;;;;;;;7.00;2.53;;;8.80;97.70;;;;;;4694852;30;20434;-75
2022/01/03 02:20:55;;;;;;;13.73;4.65;;;8.80;97.70;;;;;;4694796;30;20037;-75
2022/01/03 02:23:21;;;;;;;11.98;3.00;;;8.80;97.70;;;;;;4694722;30;20057;-75
2022/01/03 02:25:48;;;;;;;12.40;3.40;;;8.90;97.70;;;;;;4694737;30;20446;-75
2022/01/03 02:28:13;;;;;;;;;;;8.90;97.70;;;;;;4695098;30;20033;-75
2022/01/03 02:30:39;;;;;;;17.02;3.60;;;8.80;97.60;;;;;;4694674;30;19911;-75
2022/01/03 02:33:07;;;;;;;6.13;2.60;;;8.90;97.60;;;;;;4678951;30;20172;-75
2022/01/03 02:35:39;;;;;;;12.07;2.85;;;8.80;97.70;;;;;;4694674;30;20270;-74
2022/01/03 02:38:07;;;;;;;13.40;2.80;;;8.80;97.50;;;;;;4678995;30;20124;-75
2022/01/03 02:40:32;;;;;;;8.32;1.70;;;8.80;97.50;;;;;;4694638;30;20030;-75
2022/01/03 02:42:58;;;;;;;11.35;3.67;;;8.80;97.50;;;;;;4694504;30;20115;-75
2022/01/03 02:45:25;;;;;;;14.20;3.63;;;8.80;97.50;;;;;;4694421;30;20560;-74
2022/01/03 02:47:57;;;;;;;18.40;2.47;;;8.80;97.60;;;;;;4694539;30;20122;-75
2022/01/03 02:50:26;;;;;;;18.00;3.35;;;8.80;97.60;;;;;;4694499;30;20049;-74
2022/01/03 02:52:52;;;;;;;11.38;2.78;;;8.80;97.50;;;;;;4694433;30;20029;-75
2022/01/03 02:55:18;;;;;;;12.85;3.47;;;8.80;97.40;;;;;;4694499;30;20040;-75
2022/01/03 02:57:46;;;;;;;17.55;3.45;;;8.80;97.40;;;;;;4694476;30;20038;-75
2022/01/03 03:00:37;;;;;;;12.60;3.53;;;8.70;97.60;;;;;;4694452;30;20048;-76
2022/01/03 03:03:03;;;;;;;11.35;3.85;;;8.70;97.50;;;;;;4697792;30;20025;-74
2022/01/03 03:05:30;;;;;;;11.63;3.33;;;8.60;97.50;;;;;;4697818;30;20050;-74
2022/01/03 03:07:56;;;;;;;18.27;4.35;;;8.60;97.60;;;;;;4697728;30;20034;-75
2022/01/03 03:10:24;;;;;;;14.82;3.78;;;8.60;97.70;;;;;;4697642;30;20422;-75
2022/01/03 03:12:50;;;;;;;20.17;3.97;;;8.60;97.70;;;;;;4697507;30;20444;-75
2022/01/03 03:15:17;;;;;;;15.32;3.88;;;8.60;97.80;;;;;;4681941;30;20037;-75
2022/01/03 03:17:44;;;;;;;13.13;3.80;;;8.60;97.80;;;;;;4697513;30;20042;-74
2022/01/03 03:20:15;;;;;;;16.75;4.53;;;8.60;97.80;;;;;;4696276;30;20498;-75
2022/01/03 03:22:42;;;;;;;16.30;3.40;;;8.60;97.90;;;;;;4697386;30;20112;-74
2022/01/03 03:25:14;;;;;;;18.00;3.90;;;8.60;98.00;;;;;;4697479;30;20037;-75
2022/01/03 03:27:44;;;;;;;15.43;3.20;;;8.60;98.10;;;;;;4697493;30;20494;-75
2022/01/03 03:30:12;;;;;;;16.50;3.70;;;8.70;98.00;;;;;;4681748;30;20036;-75
2022/01/03 03:32:40;;;;;;;20.42;4.82;;;8.80;97.90;;;;;;4695988;30;20053;-73
2022/01/03 03:35:06;;;;;;;15.88;3.70;;;8.80;97.90;;;;;;4697179;30;20041;-75
2022/01/03 03:37:31;;;;;;;18.25;4.50;;;8.80;97.80;;;;;;4681704;30;20100;-76
2022/01/03 03:39:57;;;;;;;14.25;4.15;;;8.80;97.80;;;;;;4697127;30;20047;-75
2022/01/03 03:42:23;;;;;;;5.90;3.22;;;8.70;98.00;;;;;;4695938;30;20096;-75
2022/01/03 03:44:49;;;;;;;13.63;4.45;;;8.60;97.80;;;;;;4696983;30;20124;-74
2022/01/03 03:47:15;;;;;;;11.40;3.95;;;8.60;97.90;;;;;;4697143;30;20119;-75
2022/01/03 03:49:41;;;;;;;13.05;4.15;;;8.60;97.90;;;;;;4696086;30;20490;-75
2022/01/03 03:52:07;;;;;;;10.88;3.80;;;8.60;98.00;;;;;;4696990;30;20100;-74
2022/01/03 03:54:33;;;;;;;8.52;3.15;;;8.50;98.00;;;;;;4681377;30;20041;-75
2022/01/03 03:57:01;;;;;;;7.43;2.45;;;8.60;98.00;;;;;;4696956;30;20341;-75
2022/01/03 03:59:27;;;;;;;14.30;4.47;;;8.60;98.00;;;;;;4697090;30;20034;-75
2022/01/03 04:01:53;;;;;;;13.73;3.33;;;8.60;98.00;;;;;;4695807;30;20033;-75
2022/01/03 04:04:19;;;;;;;7.82;3.10;;;8.60;98.00;;;;;;4696705;30;20108;-76
2022/01/03 04:06:46;;;;;;;13.13;3.33;;;8.60;97.90;;;;;;4696822;30;20038;-74
2022/01/03 04:09:11;;;;;;;;;;;8.60;97.90;;;;;;4697232;30;20069;-74
2022/01/03 04:11:37;;;;;;;8.38;3.33;;;8.50;97.90;;;;;;4697092;30;19954;-74
2022/01/03 04:14:03;;;;;;;7.50;3.38;;;8.50;97.90;;;;;;4695726;30;20045;-74
2022/01/03 04:16:29;;;;;;;14.57;2.67;;;8.50;97.90;;;;;;4695472;30;20096;-76
2022/01/03 04:18:54;;;;;;;9.80;2.50;;;8.40;97.90;;;;;;4696606;30;20029;-75
2022/01/03 04:21:20;;;;;;;10.02;2.95;;;8.50;98.00;;;;;;4696646;30;20117;-75
2022/01/03 04:23:46;;;;;;;8.05;3.38;;;8.50;98.00;;;;;;4696589;30;20038;-75
2022/01/03 04:26:12;;;;;;;10.60;4.00;;;8.50;97.90;;;;;;4696429;30;20585;-74
2022/01/03 04:28:38;;;;;;;7.65;2.78;;;8.50;97.90;;;;;;4696392;30;20046;-74
2022/01/03 04:31:05;;;;;;;8.80;3.80;;;8.50;97.90;;;;;;4680710;30;20069;-75
2022/01/03 04:33:31;;;;;;;9.13;4.47;;;8.50;98.00;;;;;;4696193;30;20591;-74
2022/01/03 04:35:57;;;;;;;;;;;8.50;98.00;;;;;;4696727;30;20031;-74
2022/01/03 04:38:23;;;;;;;13.57;4.53;;;8.40;98.00;;;;;;4680759;30;20343;-75
2022/01/03 04:40:48;;;;;;;18.83;4.50;;;8.40;98.00;;;;;;4696265;30;20046;-74
2022/01/03 04:43:14;;;;;;;9.13;3.92;;;8.40;98.00;;;;;;4694991;30;20120;-75
2022/01/03 04:45:40;;;;;;;20.50;5.00;;;8.40;98.10;;;;;;4680287;30;20058;-75
2022/01/03 04:48:06;;;;;;;8.73;4.03;;;8.40;98.10;;;;;;4696138;30;20033;-75
2022/01/03 04:50:31;;;;;;;9.48;3.65;;;8.40;98.10;;;;;;4696310;30;20049;-74
2022/01/03 04:52:57;;;;;;;11.25;3.83;;;8.40;98.20;;;;;;4695957;30;20104;-75
2022/01/03 04:55:23;;;;;;;19.88;4.32;;;8.40;98.20;;;;;;4695988;30;20100;-75
2022/01/03 04:57:50;;;;;;;11.40;2.90;;;8.50;98.20;;;;;;4695905;30;20045;-75
2022/01/03 05:00:17;;;;;;;11.32;3.17;;;8.50;98.20;;;;;;4696093;30;20037;-74
2022/01/03 05:02:43;;;;;;;13.43;2.90;;;8.70;98.20;;;;;;4695877;30;20053;-74
2022/01/03 05:05:10;;;;;;;16.10;3.15;;;8.70;98.20;;;;;;4695873;30;20040;-75
2022/01/03 05:07:36;;;;;;;11.45;2.92;;;8.90;98.10;;;;;;4695818;30;20033;-76
2022/01/03 05:10:02;;;;;;;7.43;2.83;;;8.90;97.90;;;;;;4695776;30;20056;-75
2022/01/03 05:12:28;;;;;;;15.02;3.40;;;9.00;97.80;;;;;;4679937;30;20030;-74
2022/01/03 05:14:53;;;;;;;11.15;1.95;;;9.00;97.70;;;;;;4695639;30;20054;-75
2022/01/03 05:17:19;;;;;;;8.80;3.03;;;8.90;97.70;;;;;;4695807;30;20048;-75
2022/01/03 05:19:45;;;;;;;15.05;3.53;;;9.00;97.70;;;;;;4695880;30;20044;-74
2022/01/03 05:22:10;;;;;;;3.05;1.58;;;9.00;97.70;;;;;;4695520;30;20052;-72
2022/01/03 05:24:37;;;;;;;13.68;3.08;;;8.90;97.60;;;;;;4679748;30;20049;-75
2022/01/03 05:27:03;;;;;;;;;;;8.90;97.60;;;;;;4695865;30;20049;-76
2022/01/03 05:29:28;;;;;;;15.52;2.60;;;9.00;97.60;;;;;;4695476;30;20283;-75
2022/01/03 05:31:55;;;;;;;13.75;3.42;;;8.90;97.40;;;;;;4680036;30;20046;-74
2022/01/03 05:34:21;;;;;;;20.45;3.15;;;8.90;97.40;;;;;;4695327;30;20046;-75
2022/01/03 05:36:47;;;;;;;13.30;3.00;;;8.80;97.40;;;;;;4695289;30;20497;-75
2022/01/03 05:39:13;;;;;;;15.07;3.45;;;8.80;97.50;;;;;;4695295;30;20042;-75
2022/01/03 05:41:39;;;;;;;15.63;2.97;;;8.80;97.50;;;;;;4694026;30;20128;-76
2022/01/03 05:44:05;;;;;;;7.55;2.85;;;8.70;97.50;;;;;;4693863;30;20314;-75
2022/01/03 05:46:31;;;;;;;6.90;2.88;;;8.70;97.50;;;;;;4679412;30;20093;-75
2022/01/03 05:48:56;;;;;;;7.72;2.97;;;8.70;97.50;;;;;;4695170;30;20132;-75
2022/01/03 05:51:22;;;;;;;15.20;2.80;;;8.70;97.50;;;;;;4695221;30;20425;-75
2022/01/03 05:53:48;;;;;;;15.15;3.20;;;8.60;97.60;;;;;;4694894;30;20112;-75
2022/01/03 05:56:14;;;;;;;14.38;4.28;;;8.60;97.60;;;;;;4695042;30;20423;-74
2022/01/03 05:58:39;;;;;;;15.15;4.05;;;8.70;97.70;;;;;;4695099;30;20050;-75
2022/01/03 06:01:05;;;;;;;14.35;3.30;;;8.70;97.60;;;;;;4694875;30;20042;-75
2022/01/03 06:03:37;;;;;;;22.63;4.28;;;8.70;97.60;;;;;;4694817;30;20057;-75
2022/01/03 06:06:17;;;;;;;9.35;2.97;;;8.60;97.50;;;;;;4694983;30;20038;-75
2022/01/03 06:08:42;;;;;;;15.32;2.88;;;8.60;97.60;;;;;;4694905;30;20065;-74
2022/01/03 06:11:08;;;;;;;12.13;2.90;;;8.60;97.60;;;;;;4694903;30;20079;-74
2022/01/03 06:13:34;;;;;;;14.65;3.28;;;8.70;97.60;;;;;;4694742;30;20494;-76
2022/01/03 06:16:00;;;;;;;6.95;2.47;;;8.70;97.50;;;;;;4694833;30;20565;-75
2022/01/03 06:18:25;;;;;;;7.50;2.72;;;8.70;97.50;;;;;;4694725;30;20123;-75
2022/01/03 06:20:51;;;;;;;8.45;2.53;;;8.70;97.40;;;;;;4694792;30;20053;-75
2022/01/03 06:23:19;;;;;;;6.10;2.15;;;8.70;97.40;;;;;;4694773;30;20049;-74
2022/01/03 06:25:45;;;;;;;19.25;4.15;;;8.70;97.40;;;;;;4679086;30;20064;-75
2022/01/03 06:28:11;;;;;;;15.85;2.30;;;8.70;97.50;;;;;;4694514;30;20121;-74
2022/01/03 06:30:38;;;;;;;18.98;2.95;;;8.80;97.50;;;;;;4694702;30;20033;-75
2022/01/03 06:33:04;;;;;;;10.52;3.00;;;8.90;97.40;;;;;;4694572;30;20064;-75
2022/01/03 06:35:30;;;;;;;9.43;2.65;;;8.90;97.40;;;;;;4694672;30;20048;-76
2022/01/03 06:37:56;;;;;;;10.88;3.20;;;8.90;97.30;;;;;;4698269;30;20033;-74
2022/01/03 06:40:22;;;;;;;16.90;3.88;;;9.00;97.20;;;;;;4698338;30;20061;-74
2022/01/03 06:42:48;;;;;;;13.35;3.22;;;8.90;97.20;;;;;;4698268;30;20026;-75
2022/01/03 06:45:16;;;;;;;10.38;2.90;;;9.00;97.20;;;;;;4697950;30;20058;-74
2022/01/03 06:47:42;;;;;;;10.57;3.10;;;9.00;97.50;;;;;;4698032;30;20781;-75
2022/01/03 06:50:09;;;;;;;10.45;2.53;;;9.00;97.20;;;;;;4697954;30;20454;-75
2022/01/03 06:52:35;;;;;;;11.82;2.67;;;9.00;97.20;;;;;;4697849;30;20426;-75
2022/01/03 06:55:00;;;;;;;12.15;3.53;;;9.10;97.20;;;;;;4697842;30;20033;-75
2022/01/03 06:57:26;;;;;;;20.55;3.67;;;9.10;97.10;;;;;;4697847;30;20470;-74
2022/01/03 06:59:52;;;;;;;12.00;3.38;;;9.00;97.00;;;;;;4682145;30;20443;-75
2022/01/03 07:02:18;;;;;;;8.57;3.22;;;8.90;96.90;;;;;;4697728;30;20049;-75
2022/01/03 07:04:44;;;;;;;12.05;3.15;;;8.90;97.00;;;;;;4697710;30;20041;-75
2022/01/03 07:07:09;;;;;;;17.60;4.38;;;8.80;97.10;;;;;;4697697;30;20049;-74
2022/01/03 07:09:35;;;;;;;11.60;3.35;;;8.70;97.10;;;;;;4697696;30;20052;-75
2022/01/03 07:12:01;;;;;;;6.72;3.20;;;8.70;97.20;;;;;;4682068;30;20075;-74
2022/01/03 07:19:44;;;;;;;11.70;2.83;;;8.80;97.50;;;;;;4697889;30;20112;-74
2022/01/03 07:22:11;;;;;;;11.90;3.15;;;8.90;97.40;;;;;;4681997;30;20392;-75
2022/01/03 07:24:37;;;;;;;;;;;9.00;97.40;;;;;;4697872;30;20064;-75
2022/01/03 07:27:09;;;;;;;18.65;3.88;;;9.10;97.40;;;;;;4681925;30;19985;-75
2022/01/03 07:29:35;;;;;;;6.93;2.45;;;9.20;97.30;;;;;;4697270;30;20108;-75
2022/01/03 07:32:02;;;;;;;11.57;3.92;;;9.20;97.20;;;;;;4697268;30;20034;-74
2022/01/03 07:34:28;;;;;;;18.35;3.80;;;9.30;97.10;;;;;;4697123;30;20041;-74
2022/01/03 07:36:54;;;;;;;7.68;3.17;;;9.30;97.10;;;;;;4697310;30;20037;-74
2022/01/03 07:39:20;;;;;;;16.05;4.00;;;9.20;97.10;;;;;;4697286;30;20037;-75
2022/01/03 07:41:46;;;;;;;11.73;3.20;;;9.20;97.10;;;;;;4697193;30;20060;-74
2022/01/03 07:44:12;;;;;;;13.75;4.22;;;9.20;97.20;;;;;;4696944;30;20479;-75
2022/01/03 07:46:38;;;;;;;9.77;2.58;;;9.20;97.20;;;;;;4696859;30;20044;-75
2022/01/03 07:49:04;;;;;;;12.63;3.20;;;9.20;97.20;;;;;;4680657;30;20041;-75
2022/01/03 07:51:30;;;;;;;;;;;9.30;97.20;;;;;;4697471;30;20049;-75
2022/01/03 07:53:56;;;;;;;16.58;4.13;;;9.30;97.20;;;;;;4696854;30;19919;-74
2022/01/03 07:56:21;;;;;;;12.05;4.32;;;9.30;97.20;;;;;;4696997;30;20052;-74
2022/01/03 07:58:47;;;;;;;6.43;2.63;;;9.30;97.20;;;;;;4681084;30;20051;-75
2022/01/03 08:01:13;;;;;;;9.35;2.95;;;9.30;97.20;;;;;;4696721;30;20065;-74
2022/01/03 08:03:40;;;;;;;18.33;3.90;;;9.40;97.20;;;;;;4696731;30;20049;-75
2022/01/03 08:06:08;;;;;;;10.23;3.45;;;9.30;97.00;;;;;;4696910;30;20561;-75
2022/01/03 08:08:34;;;;;;;13.50;4.03;;;9.30;97.00;;;;;;4696736;30;20042;-74
2022/01/03 08:10:59;;;;;;;;;;;9.20;97.00;;;;;;4697145;30;20093;-74
2022/01/03 08:13:26;;;;;;;13.75;3.97;;;9.20;97.10;;;;;;4696472;30;20339;-76
2022/01/03 08:15:52;;;;;;;19.05;4.53;;;9.10;97.00;;;;;;4680987;30;20092;-74
2022/01/03 08:18:18;;;;;;;10.05;4.72;;;9.00;97.10;;;;;;4696605;30;20037;-74
2022/01/03 08:20:44;;;;;;;15.35;4.38;;;9.00;97.10;;;;;;4696498;30;20487;-74
2022/01/03 08:23:09;;;;;;;14.30;3.80;;;8.90;97.20;;;;;;4696586;30;20112;-75
2022/01/03 08:25:37;;;;;;;13.77;3.80;;;8.90;97.30;;;;;;4696494;30;20037;-75
2022/01/03 08:28:08;;;;;;;16.52;3.70;;;8.80;97.30;;;;;;4696163;30;20135;-65
2022/01/03 08:30:34;;;;;;;11.88;4.72;;;8.80;97.40;;;;;;4696139;30;20146;-74
2022/01/03 08:33:01;;;;;;;8.32;3.67;;;8.80;97.40;;;;;;4696115;30;20368;-75
2022/01/03 08:35:27;;;;;;;14.00;3.63;;;8.80;97.40;;;;;;4696268;30;20069;-75
2022/01/03 08:37:53;;;;;;;17.55;4.07;;;8.80;97.50;;;;;;4696284;30;20410;-75
2022/01/03 08:40:19;;;;;;;14.43;4.07;;;8.80;97.50;;;;;;4696208;30;20076;-76
2022/01/03 08:42:45;;;;;;;16.30;3.65;;;8.80;97.40;;;;;;4696484;30;20077;-75
2022/01/03 08:45:11;;;;;;;6.43;3.35;;;8.80;97.40;;;;;;4680420;30;20065;-76
2022/01/03 08:47:37;;;;;;;10.00;4.10;;;8.80;97.50;;;;;;4695879;30;20035;-75
2022/01/03 08:50:04;;;;;;;15.93;4.10;;;8.80;97.50;;;;;;4695886;30;20406;-75
2022/01/03 08:52:31;;;;;;;10.88;3.60;;;8.90;97.50;;;;;;4695858;30;20072;-75
2022/01/03 08:54:56;;;;;;;;;;;8.90;97.50;;;;;;4696122;30;20050;-75
2022/01/03 08:57:22;;;;;;;16.27;4.32;;;9.00;97.40;;;;;;4695816;30;19915;-75
2022/01/03 08:59:49;;;;;;;;;;;9.00;97.40;;;;;;4695329;30;20041;-75
2022/01/03 09:02:16;;;;;;;7.45;2.42;;;9.00;97.40;;;;;;4695527;30;20013;-75
2022/01/03 09:04:46;;;;;;;17.27;4.60;;;9.10;97.40;;;;;;4680006;30;20501;-74
2022/01/03 09:07:12;;;;;;;16.55;4.00;;;9.20;97.40;;;;;;4695637;30;20047;-74
2022/01/03 09:09:39;;;;;;;14.02;3.35;;;9.20;97.40;;;;;;4695588;30;20065;-74
2022/01/03 09:12:08;;;;;;;10.73;3.10;;;9.30;97.30;;;;;;4695314;30;20033;-75
2022/01/03 09:14:35;;;;;;;12.30;3.17;;;9.40;97.30;;;;;;4695306;30;20208;-74
2022/01/03 09:17:02;;;;;;;12.02;3.35;;;9.40;97.30;;;;;;4695519;30;20486;-74
2022/01/03 09:19:28;;;;;;;17.15;3.97;;;9.50;97.20;;;;;;4695346;30;20384;-74
2022/01/03 09:22:19;;;;;;;10.60;2.85;;;9.50;97.10;;;;;;4679665;30;20172;-75
2022/01/03 09:24:53;;;;;;;9.73;3.53;;;9.60;97.10;;;;;;4694286;30;20440;-74
2022/01/03 09:30:05;;;;;;;11.20;2.78;;;9.50;96.80;;;;;;4695429;30;20041;-75
2022/01/03 09:32:31;;;;;;;12.70;4.22;;;9.50;96.80;;;;;;4693933;30;20061;-74
2022/01/03 09:34:58;;;;;;;11.10;2.28;;;9.40;96.90;;;;;;4695147;30;20038;-75
2022/01/03 09:37:24;;;;;;;11.10;3.28;;;9.40;97.00;;;;;;4695002;30;20462;-75
2022/01/03 09:39:51;;;;;;;9.57;2.92;;;9.40;97.00;;;;;;4695591;30;20033;-75
2022/01/03 09:42:23;;;;;;;10.07;3.50;;;9.40;96.90;;;;;;4694926;30;20034;-75
2022/01/03 09:44:50;;;;;;;12.35;3.60;;;9.30;96.90;;;;;;4679250;30;20054;-75
2022/01/03 09:47:17;;;;;;;18.63;3.08;;;9.30;97.10;;;;;;4695073;30;20117;-76
2022/01/03 09:49:44;;;;;;;14.38;2.78;;;9.40;97.20;;;;;;4694804;30;20514;-76
2022/01/03 09:52:11;;;;;;;8.95;2.40;;;9.50;97.30;;;;;;4679444;30;20482;-75
2022/01/03 09:54:38;;;;;;;7.45;2.42;;;9.70;97.60;;;;;;4694611;30;20044;-74
2022/01/03 09:57:05;;;;;;;9.02;1.92;;;10.10;97.60;;;;;;4694798;30;20034;-75
2022/01/03 09:59:31;;;;;;;11.65;2.42;;;10.40;97.20;;;;;;4694763;30;20493;-74
2022/01/03 10:01:58;;;;;;;13.52;3.00;;;10.60;96.90;;;;;;4694609;30;20557;-75
2022/01/03 10:04:24;;;;;;;9.02;2.88;;;10.90;96.80;;;;;;4693561;30;20034;-75
2022/01/03 10:06:50;;;;;;;;;;;11.00;96.40;;;;;;4695235;30;20041;-74
2022/01/03 10:09:18;;;;;;;14.32;1.70;;;11.00;96.20;;;;;;4694631;30;20282;-75
2022/01/03 10:11:44;;;;;;;9.80;2.33;;;11.30;96.60;;;;;;4693723;30;20033;-75
2022/01/03 10:14:13;;;;;;;8.90;2.17;;;11.70;96.30;;;;;;4678875;30;20224;-76
2022/01/03 10:16:44;;;;;;;10.35;2.40;;;12.10;95.70;;;;;;4694333;30;20064;-75
2022/01/03 10:19:10;;;;;;;11.20;2.13;;;12.20;95.00;;;;;;4694418;30;20140;-74
2022/01/03 10:21:35;;;;;;;;;;;12.30;94.80;;;;;;4694893;30;20096;-75
2022/01/03 10:24:02;;;;;;;14.98;2.92;;;12.50;94.80;;;;;;4694357;30;20326;-75
2022/01/03 10:26:28;;;;;;;17.67;2.58;;;12.30;93.90;;;;;;4678538;30;20397;-75
2022/01/03 10:29:17;;;;;;;7.70;1.40;;;12.00;93.80;;;;;;4692874;30;20038;-75
2022/01/03 10:31:46;;;;;;;12.07;1.80;;;12.10;94.80;;;;;;4694263;30;20072;-76
2022/01/03 10:34:14;;;;;;;9.13;1.98;;;12.50;94.80;;;;;;4693884;30;20430;-76
2022/01/03 10:36:42;;;;;;;10.98;1.92;;;12.90;94.60;;;;;;4694103;30;20030;-76
2022/01/03 10:39:23;;;;;;;13.95;1.20;;;13.20;94.00;;;;;;4678596;30;20109;-75
2022/01/03 10:41:55;;;;;;;7.63;1.40;;;13.50;93.60;;;;;;4694175;30;20042;-76
2022/01/03 10:44:36;;;;;;;9.82;1.90;;;13.70;93.30;;;;;;4693775;30;20029;-75
2022/01/03 10:47:04;;;;;;;12.18;1.80;;;13.90;93.00;;;;;;4693850;30;20045;-75
2022/01/03 10:49:32;;;;;;;14.38;2.22;;;14.10;92.70;;;;;;4694061;30;20189;-73
2022/01/03 10:52:32;;;;;;;7.38;1.88;;;14.30;92.50;;;;;;4694103;30;20076;-76
2022/01/03 10:55:15;;;;;;;9.27;1.90;;;14.40;92.20;;;;;;4665021;30;20103;-75
2022/01/03 10:57:45;;;;;;;13.90;2.72;;;14.60;92.00;;;;;;4694035;30;20117;-76
2022/01/03 11:00:38;;;;;;;9.95;1.95;;;14.50;91.20;;;;;;4693750;30;20056;-75
2022/01/03 11:03:35;;;;;;;12.00;1.63;;;14.00;90.50;;;;;;4691282;30;20317;-76
2022/01/03 11:06:13;;;;;;;11.75;1.95;;;13.50;90.80;;;;;;4693137;30;20140;-77
2022/01/03 11:11:41;;;;;;;8.30;1.58;;;13.80;91.70;;;;;;4694177;30;20159;-74
2022/01/03 11:14:08;;;;;;;10.38;1.92;;;14.00;91.60;;;;;;4693671;30;20038;-75
2022/01/03 11:16:40;;;;;;;14.57;2.00;;;14.20;91.00;;;;;;4693939;30;20034;-75
2022/01/03 11:19:06;;;;;;;9.32;2.22;;;14.30;90.80;;;;;;4693650;30;20033;-70
2022/01/03 11:21:33;;;;;;;;;;;14.50;90.80;;;;;;4694162;30;20030;-75
2022/01/03 11:24:09;;;;;;;14.10;2.53;;;14.70;90.70;;;;;;4696183;30;19931;-75
2022/01/03 11:26:40;;;;;;;13.95;2.38;;;14.90;90.50;;;;;;4696862;30;20037;-73
2022/01/03 11:29:06;;;;;;;9.90;2.00;;;15.00;90.20;;;;;;4697318;30;20406;-73
2022/01/03 11:31:33;;;;;;;8.40;2.05;;;15.20;90.30;;;;;;4696923;30;20044;-76
2022/01/03 11:34:00;;;;;;;6.70;1.42;;;15.40;90.10;;;;;;4696483;30;20049;-74
2022/01/03 11:36:27;;;;;;;15.75;1.92;;;15.50;89.90;;;;;;4696701;30;20037;-75
2022/01/03 11:38:56;;;;;;;12.07;2.30;;;15.50;88.90;;;;;;4696846;30;20348;-75
2022/01/03 11:41:21;;;;;;;8.23;2.30;;;15.70;89.40;;;;;;4696381;30;20452;-75
2022/01/03 11:43:49;;;;;;;13.82;3.47;;;15.90;87.70;;;;;;4696236;30;20033;-74
2022/01/03 11:46:15;;;;;;;18.48;3.35;;;15.60;86.80;;;;;;4696198;30;20054;-75
2022/01/03 11:48:40;;;;;;;16.35;2.55;;;15.10;85.90;;;;;;4696436;30;20040;-75
2022/01/03 11:51:09;;;;;;;6.38;2.25;;;14.60;85.60;;;;;;4695408;30;20152;-74
2022/01/03 11:53:42;;;;;;;10.77;2.42;;;14.00;86.60;;;;;;4696189;30;20068;-74
2022/01/03 11:56:16;;;;;;;10.23;1.98;;;13.60;87.00;;;;;;4696480;30;20088;-76
2022/01/03 11:59:17;;;;;;;11.75;3.05;;;13.70;89.70;;;;;;4696271;30;20065;-76
2022/01/03 12:04:41;;;;;;;16.48;2.67;;;14.00;88.80;;;;;;4695875;30;20052;-75
2022/01/03 12:07:09;;;;;;;11.27;2.67;;;13.60;88.30;;;;;;4695880;30;20039;-75
2022/01/03 12:09:43;;;;;;;11.10;2.20;;;13.60;89.80;;;;;;4680473;30;20439;-75
2022/01/03 12:12:27;;;;;;;11.40;2.42;;;13.70;89.80;;;;;;4696220;30;20073;-74
2022/01/03 12:14:53;;;;;;;11.35;2.38;;;13.60;88.70;;;;;;4695921;30;20496;-74
2022/01/03 12:17:19;;;;;;;9.23;1.92;;;13.30;88.60;;;;;;4696091;30;20042;-75
2022/01/03 12:19:46;;;;;;;19.50;2.97;;;13.20;89.00;;;;;;4695863;30;20093;-75
2022/01/03 12:22:17;;;;;;;12.10;2.92;;;13.00;89.30;;;;;;4679730;30;20475;-76
2022/01/03 12:24:44;;;;;;;13.25;1.80;;;12.80;89.10;;;;;;4695183;30;20037;-64
2022/01/03 12:27:10;;;;;;;10.85;3.20;;;12.60;89.70;;;;;;4695088;30;20037;-74
2022/01/03 12:29:57;;;;;;;12.20;2.92;;;12.60;90.00;;;;;;4695753;30;20388;-75
2022/01/03 12:32:23;;;;;;;18.50;2.55;;;12.50;90.20;;;;;;4695709;30;20054;-75
2022/01/03 12:35:10;;;;;;;10.93;2.17;;;12.50;90.30;;;;;;4694904;30;20041;-74
2022/01/03 12:37:54;;;;;;;8.15;1.80;;;12.50;90.40;;;;;;4695575;30;20115;-75
2022/01/03 12:40:21;;;;;;;8.60;2.05;;;12.40;90.40;;;;;;4695769;30;20040;-75
2022/01/03 12:42:51;;;;;;;8.60;1.80;;;12.30;90.40;;;;;;4695099;30;20040;-75
2022/01/03 12:45:28;;;;;;;10.40;2.80;;;12.20;90.50;;;;;;4695446;30;20485;-75
2022/01/03 12:48:10;;;;;;;13.55;2.80;;;12.10;90.70;;;;;;4679441;30;20508;-75
2022/01/03 12:50:51;;;;;;;8.38;2.50;;;12.10;90.90;;;;;;4694763;30;20490;-74
2022/01/03 12:53:32;;;;;;;12.63;2.80;;;12.00;91.00;;;;;;4695265;30;20038;-75
2022/01/03 12:56:00;;;;;;;11.77;2.72;;;12.00;91.20;;;;;;4695411;30;20037;-74
2022/01/03 12:58:26;;;;;;;14.73;3.17;;;12.00;91.30;;;;;;4695180;30;20033;-74
2022/01/03 13:01:14;;;;;;;11.13;2.67;;;12.00;91.40;;;;;;4694879;30;20517;-75
2022/01/03 13:03:39;;;;;;;8.45;2.55;;;12.00;91.50;;;;;;4679449;30;20041;-75
2022/01/03 13:06:11;;;;;;;11.15;2.83;;;12.00;91.50;;;;;;4695077;30;20188;-75
2022/01/03 13:08:57;;;;;;;14.77;2.50;;;12.00;91.70;;;;;;4678936;30;20061;-75
2022/01/03 13:11:31;;;;;;;8.70;1.90;;;12.10;91.70;;;;;;4685202;30;20076;-74
2022/01/03 13:14:00;;;;;;;9.32;2.00;;;12.10;91.80;;;;;;4694427;30;20098;-76
2022/01/03 13:16:36;;;;;;;14.73;2.65;;;12.10;91.70;;;;;;4694647;30;20100;-74